Baton Rouge, Louisiana
Current Conditions -  °F | °C
As of 6:53 AM on Wednesday 22 Oct 2014 (Local Time) from KBTR Reporting Station
Clear Clear  
Wind Chill: 14°   Ceiling: Unl
Heat Index: 14°   Visibility: 10mi
Dew Point: 12°   Wind: 6mph
Humidity: 87%   Direction: 40°NE
Pressure: 30.07"   Gusts: NA
Location:  30.44°N, 91.19°W
Report Text: KBTR 221153Z 04005KT 10SM CLR 14/12 A3007 RMK AO2 SLP182 T01440122 10167 20128 53009
Loading
Personal Weather Stations






























Interactive Weather Map
Tropical Storm Tracking
New forecast layout! Learn more

10-Day Weather Forecast

Advertisements
Track Severe Weather on mobile